Time;durP1;ratioP1;P1;durP2;ratioP2;P2;SDS_P1;SDS_P2;PMS_P1;PMS_P2;Temp;Humidity;BMP_temperature;BMP_pressure;BME280_temperature;BME280_humidity;BME280_pressure;Samples;Min_cycle;Max_cycle;Signal;HPM_P1;HPM_P2
2023/04/08 00:00:30;;;;;;;3.75;2.72;;;;;;;16.70;50.37;100287.69;10175723;28;97451;-81
2023/04/08 00:05:35;;;;;;;5.88;2.90;;;;;;;16.40;51.76;100289.63;10172418;28;96904;-81
2023/04/08 00:10:38;;;;;;;3.83;2.55;;;;;;;16.44;51.85;100295.59;10168129;28;96826;-81
2023/04/08 00:15:41;;;;;;;3.47;2.90;;;;;;;16.64;51.34;100292.53;10159910;28;98654;-82
2023/04/08 00:20:46;;;;;;;4.53;2.50;;;;;;;16.34;51.91;100292.63;10171734;28;96849;-82
2023/04/08 00:25:49;;;;;;;4.55;2.50;;;;;;;16.74;50.52;100289.19;10173127;28;99367;-82
2023/04/08 00:30:53;;;;;;;4.93;2.50;;;;;;;16.36;51.37;100292.53;10175313;28;96915;-82
2023/04/08 00:35:58;;;;;;;4.55;2.45;;;;;;;16.35;51.61;100291.69;10172587;28;99546;-82
2023/04/08 00:41:03;;;;;;;4.20;2.75;;;;;;;16.58;50.89;100291.13;10175718;28;96879;-81
2023/04/08 00:46:06;;;;;;;4.15;2.30;;;;;;;16.58;50.32;100291.13;10173305;28;98657;-81
2023/04/08 00:51:11;;;;;;;3.35;2.47;;;;;;;16.62;50.90;100286.44;10172050;28;98493;-82
2023/04/08 00:56:14;;;;;;;7.55;3.25;;;;;;;16.47;51.06;100285.63;10170813;28;96850;-81
2023/04/08 01:01:26;;;;;;;7.68;2.85;;;;;;;16.20;51.67;100284.69;10173109;28;99193;-82
2023/04/08 01:06:41;;;;;;;6.93;2.60;;;;;;;16.04;52.49;100281.25;10170482;28;98542;-81
2023/04/08 01:11:46;;;;;;;5.45;2.80;;;;;;;16.04;52.58;100280.41;10171767;28;97041;-81
2023/04/08 01:16:49;;;;;;;7.30;2.85;;;;;;;16.09;52.65;100270.34;10164258;28;97970;-82
2023/04/08 01:21:56;;;;;;;3.22;2.33;;;;;;;16.03;53.12;100273.41;10171444;28;99235;-83
2023/04/08 01:27:05;;;;;;;6.50;2.85;;;;;;;15.83;54.12;100272.81;10171420;28;99414;-82
2023/04/08 01:32:09;;;;;;;4.15;2.67;;;;;;;15.68;54.45;100267.56;10170379;28;96797;-82
2023/04/08 01:37:16;;;;;;;4.53;2.33;;;;;;;15.66;54.86;100272.13;10173270;28;96886;-82
2023/04/08 01:42:27;;;;;;;4.55;2.80;;;;;;;15.14;56.56;100276.09;10173786;28;99594;-82
2023/04/08 01:47:31;;;;;;;6.75;2.60;;;;;;;14.90;57.57;100265.09;10182783;28;99394;-81
2023/04/08 01:52:35;;;;;;;6.47;2.50;;;;;;;14.87;56.46;100269.72;10169556;28;99359;-82
2023/04/08 01:57:44;;;;;;;5.40;2.70;;;;;;;14.98;55.22;100262.88;10173888;28;96868;-82
2023/04/08 02:02:48;;;;;;;7.45;3.20;;;;;;;14.94;55.08;100260.50;10172033;28;99077;-81
2023/04/08 02:07:52;;;;;;;5.43;3.13;;;;;;;14.77;56.58;100262.28;10170173;28;97843;-81
2023/04/08 02:12:57;;;;;;;6.88;3.00;;;;;;;14.88;55.34;100263.47;10167304;28;97232;-82
2023/04/08 02:18:06;;;;;;;;;;;;;;;14.94;54.66;100258.66;10178706;28;99049;-81
2023/04/08 02:23:15;;;;;;;4.03;2.63;;;;;;;15.04;54.07;100254.56;10178018;28;98582;-81
2023/04/08 02:28:21;;;;;;;4.88;3.17;;;;;;;14.66;56.96;100263.84;10174716;28;99861;-81
2023/04/08 02:33:25;;;;;;;5.15;3.00;;;;;;;14.33;58.52;100266.53;10170774;28;98532;-81
2023/04/08 02:38:29;;;;;;;6.43;3.03;;;;;;;14.21;59.31;100259.28;10170085;28;97351;-81
2023/04/08 02:43:34;;;;;;;5.10;2.90;;;;;;;14.07;59.90;100258.31;10167590;28;98677;-81
2023/04/08 02:48:37;;;;;;;8.35;3.28;;;;;;;13.92;60.49;100267.06;10168721;28;97913;-81
2023/04/08 02:53:41;;;;;;;5.60;2.92;;;;;;;13.86;60.57;100256.78;10162065;28;99055;-82
2023/04/08 02:58:45;;;;;;;6.35;2.97;;;;;;;13.75;61.25;100252.06;10172987;28;97216;-81
2023/04/08 03:03:49;;;;;;;4.43;2.80;;;;;;;13.56;62.55;100246.00;10166524;28;97179;-81
2023/04/08 03:08:52;;;;;;;4.30;2.50;;;;;;;13.56;62.17;100246.00;10168952;28;97882;-81
2023/04/08 03:13:57;;;;;;;5.35;2.78;;;;;;;13.52;61.33;100258.53;10176809;28;98871;-80
2023/04/08 03:19:00;;;;;;;6.00;2.80;;;;;;;13.51;61.25;100255.97;10170363;28;97123;-81
2023/04/08 03:24:04;;;;;;;6.72;2.95;;;;;;;13.47;61.97;100255.28;10185460;28;97306;-81
2023/04/08 03:29:09;;;;;;;5.38;2.70;;;;;;;13.41;61.45;100247.69;10175039;28;98235;-81
2023/04/08 03:34:12;;;;;;;6.55;3.00;;;;;;;13.40;61.17;100247.72;10171968;28;98617;-82
2023/04/08 03:39:15;;;;;;;5.85;2.83;;;;;;;13.29;61.55;100245.63;10179699;28;96854;-82
2023/04/08 03:44:20;;;;;;;4.85;2.58;;;;;;;13.19;62.98;100249.69;10176203;28;98778;-82
2023/04/08 03:49:23;;;;;;;3.67;2.65;;;;;;;13.07;62.95;100246.81;10179128;28;97052;-81
2023/04/08 03:54:27;;;;;;;5.25;2.53;;;;;;;13.71;59.19;100244.38;10182093;28;97681;-81
2023/04/08 03:59:32;;;;;;;4.18;2.67;;;;;;;13.56;60.61;100246.88;10182700;28;98581;-82
2023/04/08 04:04:36;;;;;;;7.22;2.90;;;;;;;13.83;59.13;100247.22;10171425;28;99643;-81
2023/04/08 04:09:39;;;;;;;4.05;2.60;;;;;;;13.77;58.42;100238.75;10175426;28;96914;-81
2023/04/08 04:14:44;;;;;;;3.88;2.63;;;;;;;13.89;58.90;100238.09;10179775;28;99680;-81
2023/04/08 04:19:47;;;;;;;7.03;3.08;;;;;;;14.12;56.75;100238.63;10174672;28;98765;-82
2023/04/08 04:24:50;;;;;;;7.43;2.67;;;;;;;14.27;55.93;100253.66;10182505;28;96944;-82
2023/04/08 04:29:55;;;;;;;5.63;2.40;;;;;;;13.68;59.84;100255.94;10173627;28;96996;-82
2023/04/08 04:34:59;;;;;;;5.57;2.53;;;;;;;13.63;60.03;100253.56;10172611;28;96887;-84
2023/04/08 04:40:02;;;;;;;5.60;2.33;;;;;;;14.17;56.18;100254.25;10171199;28;98007;-83
2023/04/08 04:45:08;;;;;;;5.35;2.80;;;;;;;14.33;54.83;100253.31;10173761;28;96923;-83
2023/04/08 04:50:12;;;;;;;4.15;2.22;;;;;;;14.44;54.62;100258.00;10166120;28;96820;-84
2023/04/08 04:55:15;;;;;;;5.30;2.60;;;;;;;14.43;54.52;100254.53;10179878;28;97740;-84
2023/04/08 05:00:20;;;;;;;4.35;2.53;;;;;;;14.47;54.07;100263.16;10180056;28;99039;-84
2023/04/08 05:05:23;;;;;;;6.72;2.70;;;;;;;14.61;53.59;100263.22;10178158;28;97971;-83
2023/04/08 05:10:27;;;;;;;3.33;2.30;;;;;;;14.36;54.75;100270.84;10173098;28;96966;-83
2023/04/08 05:15:32;;;;;;;4.53;2.40;;;;;;;14.21;55.00;100267.22;10167296;28;97722;-83
2023/04/08 05:20:35;;;;;;;3.58;2.33;;;;;;;14.29;53.88;100269.44;10177639;28;96811;-82
2023/04/08 05:25:39;;;;;;;6.40;2.58;;;;;;;14.39;53.56;100274.16;10165292;28;99235;-84
2023/04/08 05:30:48;;;;;;;6.80;2.10;;;;;;;14.46;52.65;100279.97;10176421;28;99033;-84
2023/04/08 05:35:51;;;;;;;5.30;2.70;;;;;;;14.46;52.94;100278.19;10177584;28;96994;-84
2023/04/08 05:40:55;;;;;;;3.45;2.40;;;;;;;13.99;55.66;100273.69;10173822;28;98674;-83
2023/04/08 05:45:59;;;;;;;4.22;2.60;;;;;;;13.49;58.37;100284.28;10176624;28;97861;-84
2023/04/08 05:51:03;;;;;;;4.78;2.42;;;;;;;13.37;59.20;100296.34;10165757;28;96859;-84
2023/04/08 05:56:06;;;;;;;4.18;2.58;;;;;;;13.76;56.04;100305.81;10177467;28;96900;-84
2023/04/08 06:01:11;;;;;;;4.55;2.78;;;;;;;13.58;57.06;100307.59;10177386;28;98866;-84
2023/04/08 06:06:14;;;;;;;4.60;2.42;;;;;;;13.52;58.07;100313.19;10173749;28;98764;-83
2023/04/08 06:11:18;;;;;;;4.05;2.17;;;;;;;13.69;56.00;100315.84;10167890;28;99058;-84
2023/04/08 06:16:23;;;;;;;5.60;2.70;;;;;;;13.66;57.12;100332.72;10168339;28;97787;-85
2023/04/08 06:21:26;;;;;;;4.30;2.70;;;;;;;13.74;55.40;100326.19;10162971;28;98373;-84
2023/04/08 06:26:29;;;;;;;3.42;2.45;;;;;;;13.94;55.01;100332.16;10169353;28;96816;-85
2023/04/08 06:31:34;;;;;;;4.80;2.30;;;;;;;14.01;54.81;100337.97;10164370;28;97138;-86
2023/04/08 06:36:37;;;;;;;;;;;;;;;13.68;57.30;100335.28;10170210;28;97750;-84
2023/04/08 06:41:41;;;;;;;4.13;2.47;;;;;;;14.26;54.82;100336.66;10172417;28;98926;-86
2023/04/08 06:46:46;;;;;;;4.22;2.25;;;;;;;15.23;52.51;100342.69;10169001;28;98934;-85
2023/04/08 06:51:49;;;;;;;2.90;2.22;;;;;;;15.42;53.86;100350.47;10160336;28;96847;-83
2023/04/08 06:56:53;;;;;;;5.45;2.58;;;;;;;15.89;52.93;100356.50;10180050;28;97466;-85
2023/04/08 07:01:57;;;;;;;4.97;2.55;;;;;;;16.46;52.16;100360.94;10174089;28;98642;-84
2023/04/08 07:07:00;;;;;;;;;;;;;;;17.26;48.36;100365.59;10168037;28;97957;-81
2023/04/08 07:12:04;;;;;;;4.50;2.30;;;;;;;17.28;48.73;100368.97;10175159;28;98605;-80
2023/04/08 07:17:09;;;;;;;4.25;2.50;;;;;;;17.78;47.63;100370.03;10172275;28;96870;-80
2023/04/08 07:22:12;;;;;;;3.47;2.50;;;;;;;18.00;48.29;100374.78;10165768;28;98632;-81
2023/04/08 07:27:16;;;;;;;4.25;2.33;;;;;;;18.97;44.63;100385.63;10169418;28;97733;-84
2023/04/08 07:32:26;;;;;;;3.03;2.08;;;;;;;19.88;41.81;100393.09;10168570;28;97464;-84
2023/04/08 07:37:42;;;;;;;;;;;;;;;;;;;;;
2023/04/08 07:42:46;;;;;;;4.43;2.40;;;;;;;21.16;40.01;100398.16;10171509;28;96900;-82
2023/04/08 07:48:32;;;;;;;;;;;;;;;;;;;;;
2023/04/08 08:01:07;;;;;;;;;;;;;;;;;;;;;
2023/04/08 08:12:54;;;;;;;5.38;2.20;;;;;;;23.82;33.49;100387.38;10062386;28;97228;-86
2023/04/08 08:19:13;;;;;;;;;;;;;;;;;;;;;
2023/04/08 08:24:17;;;;;;;4.75;2.22;;;;;;;24.01;31.92;100381.97;10172765;28;99715;-87
2023/04/08 08:29:34;;;;;;;3.22;2.28;;;;;;;24.53;31.50;100372.56;10168848;28;96879;-92
2023/04/08 08:34:39;;;;;;;7.68;2.42;;;;;;;24.61;31.16;100376.22;10166401;28;97706;-89
2023/04/08 08:39:45;;;;;;;4.95;3.05;;;;;;;24.59;30.91;100371.97;10163798;28;99231;-86
2023/04/08 08:45:31;;;;;;;;;;;;;;;;;;;;;
2023/04/08 08:50:44;;;;;;;4.15;2.50;;;;;;;25.47;29.10;100385.72;10162331;28;97875;-84
2023/04/08 09:03:11;;;;;;;;;;;;;;;;;;;;;
2023/04/08 10:54:24;;;;;;;;;;;;;;;;;;;;;
2023/04/08 11:05:54;;;;;;;2.58;1.90;;;;;;;29.47;21.85;100297.66;12702218;22;97959;-90
2023/04/08 11:11:09;;;;;;;3.80;2.10;;;;;;;29.96;21.47;100298.13;12865728;22;100203;-95
2023/04/08 11:16:24;;;;;;;4.00;1.90;;;;;;;30.13;21.28;100291.56;12870297;22;102348;-93
2023/04/08 11:21:37;;;;;;;3.47;1.83;;;;;;;30.14;21.21;100287.81;12864507;22;101536;-90
2023/04/08 11:26:53;;;;;;;2.65;1.67;;;;;;;30.81;21.39;100281.31;12868301;22;98937;-92
2023/04/08 11:32:25;;;;;;;3.75;1.80;;;;;;;30.18;21.84;100272.84;12866909;22;98936;-92
2023/04/08 11:37:48;;;;;;;;;;;;;;;;;;;;;
2023/04/08 11:43:35;;;;;;;2.80;1.90;;;;;;;29.67;21.87;100260.06;12868109;22;101425;-93
2023/04/08 11:49:23;;;;;;;3.63;1.77;;;;;;;30.20;21.36;100249.91;12862698;22;100094;-89
2023/04/08 11:54:55;;;;;;;4.22;2.28;;;;;;;29.87;22.26;100248.53;12851882;22;98968;-88
2023/04/08 12:00:20;;;;;;;3.08;1.80;;;;;;;30.11;21.12;100226.59;12859710;22;98718;-84
2023/04/08 12:35:46;;;;;;;3.63;2.05;;;;;;;30.68;21.07;100174.34;12729295;22;97913;-88
2023/04/08 12:41:36;;;;;;;2.45;1.52;;;;;;;30.35;21.49;100165.75;12596077;22;98995;-86
2023/04/08 12:47:12;;;;;;;2.28;1.50;;;;;;;30.39;20.52;100161.59;12726245;22;98448;-86
2023/04/08 12:52:23;;;;;;;3.25;1.80;;;;;;;30.55;20.95;100152.38;12861572;22;99353;-89
2023/04/08 12:57:37;;;;;;;5.20;1.90;;;;;;;30.91;20.83;100164.13;12856931;22;101088;-88
2023/04/08 13:42:56;;;;;;;3.95;2.20;;;;;;;28.46;25.63;100165.13;11974457;24;100241;-85
2023/04/08 13:48:42;;;;;;;6.97;2.35;;;;;;;28.10;24.63;100165.56;12264736;23;100126;-88
2023/04/08 13:53:48;;;;;;;4.85;2.30;;;;;;;28.03;26.05;100170.00;12376842;23;98911;-84
2023/04/08 13:58:54;;;;;;;3.63;2.10;;;;;;;27.62;25.96;100175.63;12605993;23;99040;-81
2023/04/08 14:03:59;;;;;;;4.55;2.70;;;;;;;27.79;26.78;100178.19;12807363;22;97923;-82
2023/04/08 14:09:03;;;;;;;5.30;2.50;;;;;;;27.80;27.06;100177.19;12860021;22;98912;-83
2023/04/08 14:14:15;;;;;;;4.07;2.50;;;;;;;27.58;27.61;100180.53;12861967;22;99170;-82
2023/04/08 14:19:18;;;;;;;6.63;2.50;;;;;;;27.64;26.64;100189.84;12863384;22;98949;-83
2023/04/08 14:24:22;;;;;;;4.13;2.17;;;;;;;27.57;27.30;100172.59;12863647;22;99356;-83
2023/04/08 14:29:26;;;;;;;5.57;2.90;;;;;;;27.44;27.78;100172.28;12863444;22;98963;-84
2023/04/08 14:34:29;;;;;;;5.25;2.58;;;;;;;27.39;26.56;100182.78;12863402;22;98939;-84
2023/04/08 14:39:32;;;;;;;3.37;2.30;;;;;;;27.27;27.13;100184.13;12865252;22;98855;-83
2023/04/08 14:44:37;;;;;;;5.93;2.47;;;;;;;27.36;27.79;100192.03;12864815;22;99183;-83
2023/04/08 14:49:40;;;;;;;5.55;2.78;;;;;;;27.53;28.42;100188.31;12863664;22;99035;-83
2023/04/08 14:54:44;;;;;;;6.20;2.40;;;;;;;27.41;28.38;100183.41;12863037;22;99202;-83
2023/04/08 14:59:48;;;;;;;5.00;2.70;;;;;;;27.17;27.33;100189.69;12868571;22;98902;-83
2023/04/08 15:04:52;;;;;;;4.97;1.90;;;;;;;27.26;26.76;100187.81;12864369;22;99018;-83
2023/04/08 15:10:07;;;;;;;4.13;2.08;;;;;;;27.29;26.56;100182.91;12866303;22;99035;-83
2023/04/08 15:15:14;;;;;;;4.50;2.27;;;;;;;27.23;26.83;100183.63;12865521;22;98993;-84
2023/04/08 15:20:20;;;;;;;6.43;2.00;;;;;;;27.17;26.55;100188.81;12864106;22;99158;-83
2023/04/08 15:25:25;;;;;;;4.68;2.28;;;;;;;27.12;26.84;100193.88;12863012;22;99012;-83
2023/04/08 15:30:34;;;;;;;4.15;2.25;;;;;;;27.09;27.36;100205.88;12864153;22;99141;-83
2023/04/08 15:35:38;;;;;;;3.90;2.28;;;;;;;27.01;27.19;100198.56;12865869;22;99572;-86
2023/04/08 15:40:42;;;;;;;3.63;1.90;;;;;;;26.86;27.58;100200.25;12862528;22;98977;-82
2023/04/08 15:45:48;;;;;;;7.45;2.70;;;;;;;26.95;27.63;100199.25;12863968;22;99111;-82
2023/04/08 15:50:51;;;;;;;4.78;2.72;;;;;;;26.78;28.36;100189.41;12862529;22;98979;-78
2023/04/08 15:55:55;;;;;;;6.00;2.40;;;;;;;26.49;29.28;100191.69;12810494;22;100671;-79
2023/04/08 16:01:00;;;;;;;4.97;2.60;;;;;;;26.51;29.33;100200.47;12795990;22;99087;-79
2023/04/08 16:06:10;;;;;;;4.07;2.33;;;;;;;26.43;28.90;100196.91;12795646;22;98885;-87
2023/04/08 16:11:13;;;;;;;4.97;2.13;;;;;;;26.39;28.70;100211.72;12799316;22;99024;-79
2023/04/08 16:16:21;;;;;;;4.97;2.20;;;;;;;26.27;29.37;100210.28;12797090;22;97671;-85
2023/04/08 16:21:26;;;;;;;4.40;2.60;;;;;;;26.07;29.31;100212.38;12800327;22;98975;-87
2023/04/08 16:26:32;;;;;;;3.97;2.40;;;;;;;26.02;29.64;100212.03;12801800;22;102028;-82
2023/04/08 16:31:38;;;;;;;6.18;2.60;;;;;;;26.01;29.58;100214.84;12799970;22;99273;-84
2023/04/08 16:36:45;;;;;;;3.47;2.50;;;;;;;26.01;29.90;100214.84;12798747;22;98463;-86
2023/04/08 16:41:57;;;;;;;4.75;2.30;;;;;;;25.92;30.12;100221.22;12798791;22;99421;-88
2023/04/08 16:47:04;;;;;;;7.70;2.13;;;;;;;25.78;30.03;100226.19;12799701;22;99189;-92
2023/04/08 16:58:30;;;;;;;7.75;2.63;;;;;;;25.73;31.16;100220.41;12603051;23;98157;-85
2023/04/08 17:04:22;;;;;;;4.75;2.50;;;;;;;25.61;31.25;100224.34;12499748;23;97967;-89
2023/04/08 17:46:05;;;;;;;3.70;2.10;;;;;;;24.90;31.43;100249.56;12663663;23;98922;-84
2023/04/08 17:51:16;;;;;;;4.65;2.30;;;;;;;24.83;31.73;100243.94;12676690;23;99084;-84
2023/04/08 18:08:29;;;;;;;5.93;2.53;;;;;;;24.59;33.15;100254.41;12351461;23;99998;-83
2023/04/08 18:14:38;;;;;;;;;;;;;;;;;;;;;
2023/04/08 18:20:40;;;;;;;;;;;;;;;;;;;;;
2023/04/08 19:31:47;;;;;;;5.15;2.90;;;;;;;21.33;43.63;100339.59;12397964;23;97212;-91
2023/04/08 19:36:56;;;;;;;3.83;2.70;;;;;;;21.12;44.81;100349.34;12544858;23;97669;-89
2023/04/08 19:42:15;;;;;;;6.20;3.03;;;;;;;20.95;44.55;100357.03;12547909;23;103030;-87
2023/04/08 19:47:30;;;;;;;;;;;;;;;20.88;45.79;100366.53;12551948;23;98405;-88
2023/04/08 19:52:44;;;;;;;6.20;3.65;;;;;;;20.96;44.52;100378.34;12547977;23;101192;-88
2023/04/08 20:10:29;;;;;;;5.65;3.45;;;;;;;20.03;49.05;100399.09;12309156;23;98286;-87
2023/04/08 20:15:48;;;;;;;5.55;3.50;;;;;;;19.77;49.67;100406.38;12376601;23;97680;-81
2023/04/08 20:39:29;;;;;;;7.13;3.92;;;;;;;19.11;51.29;100454.84;12520272;23;99715;-94
2023/04/08 20:44:36;;;;;;;7.50;3.85;;;;;;;19.50;50.66;100461.81;12546649;23;99899;-94
2023/04/08 20:49:41;;;;;;;9.00;3.60;;;;;;;19.68;50.07;100459.63;12546172;23;101388;-86
2023/04/08 20:54:49;;;;;;;8.82;4.00;;;;;;;19.36;51.09;100461.06;12543734;23;99335;-93
2023/04/08 21:00:00;;;;;;;8.45;3.60;;;;;;;18.67;53.13;100457.13;12542647;23;99379;-87
2023/04/08 21:05:07;;;;;;;7.95;3.30;;;;;;;18.67;51.99;100473.13;12543099;23;99248;-87
2023/04/08 21:10:16;;;;;;;7.70;3.75;;;;;;;19.02;51.23;100478.66;12542301;23;98923;-89
2023/04/08 21:15:20;;;;;;;9.10;3.55;;;;;;;18.79;51.79;100484.75;12542809;23;98841;-89
2023/04/08 21:20:25;;;;;;;5.05;3.30;;;;;;;18.50;53.30;100499.22;12543834;23;98977;-85
2023/04/08 21:25:33;;;;;;;5.28;3.67;;;;;;;18.24;54.06;100490.31;12539730;23;102310;-86
2023/04/08 21:30:36;;;;;;;5.70;3.80;;;;;;;18.68;51.78;100503.31;12545136;23;99115;-85
2023/04/08 21:35:40;;;;;;;5.90;3.40;;;;;;;18.97;50.45;100502.13;12541724;23;99001;-85
2023/04/08 21:40:44;;;;;;;5.43;3.58;;;;;;;18.98;50.84;100496.69;12543259;23;99000;-85
2023/04/08 21:45:47;;;;;;;7.88;3.38;;;;;;;18.22;53.11;100492.22;12540608;23;99023;-84
2023/04/08 21:50:51;;;;;;;5.88;3.40;;;;;;;18.35;52.64;100486.91;12848683;22;99022;-84
2023/04/08 21:55:56;;;;;;;6.60;3.30;;;;;;;17.94;52.93;100492.34;12859489;22;99213;-83
2023/04/08 22:00:59;;;;;;;6.03;3.80;;;;;;;18.15;51.99;100496.25;12859190;22;99066;-83
2023/04/08 22:06:02;;;;;;;6.50;3.30;;;;;;;18.27;52.16;100511.41;12859053;22;98985;-83
2023/04/08 22:11:08;;;;;;;5.10;3.50;;;;;;;18.19;52.95;100503.91;12859192;22;97771;-82
2023/04/08 22:16:14;;;;;;;6.03;3.42;;;;;;;18.18;53.09;100506.69;12856876;22;98589;-85
2023/04/08 22:21:17;;;;;;;6.50;3.47;;;;;;;17.99;53.74;100512.38;12858520;22;99221;-88
2023/04/08 22:26:23;;;;;;;6.38;3.65;;;;;;;18.02;53.46;100519.34;12857735;22;99220;-85
2023/04/08 22:31:26;;;;;;;6.47;3.50;;;;;;;18.03;52.84;100515.69;12858045;22;98994;-86
2023/04/08 22:36:38;;;;;;;10.75;3.88;;;;;;;17.96;52.49;100509.94;12858572;22;99246;-86
2023/04/08 22:41:45;;;;;;;4.53;3.13;;;;;;;17.83;53.63;100510.84;12861816;22;98903;-86
2023/04/08 22:46:48;;;;;;;8.15;3.63;;;;;;;17.26;55.54;100512.69;12860850;22;98942;-84
2023/04/08 22:51:53;;;;;;;5.07;3.20;;;;;;;17.61;53.42;100519.34;12861014;22;99222;-87
2023/04/08 22:57:01;;;;;;;5.88;3.05;;;;;;;17.98;51.90;100516.00;12859583;22;97990;-87
2023/04/08 23:02:05;;;;;;;5.03;2.65;;;;;;;17.75;53.04;100529.97;12861674;22;98873;-85
2023/04/08 23:07:08;;;;;;;5.28;3.20;;;;;;;17.91;52.28;100525.34;12860442;22;98955;-86
2023/04/08 23:12:13;;;;;;;7.60;3.00;;;;;;;17.38;53.59;100519.06;12862701;22;99113;-85
2023/04/08 23:17:16;;;;;;;6.10;3.10;;;;;;;17.37;53.62;100525.31;12861179;22;98983;-85
2023/04/08 23:22:23;;;;;;;7.10;3.65;;;;;;;17.53;53.82;100529.63;12860275;22;98573;-86
2023/04/08 23:27:27;;;;;;;6.05;3.25;;;;;;;17.48;53.96;100537.06;12859757;22;99023;-86
2023/04/08 23:32:30;;;;;;;;;;;;;;;17.13;54.75;100533.06;12862835;22;99437;-85
2023/04/08 23:37:33;;;;;;;6.78;3.55;;;;;;;16.79;55.69;100533.41;12859638;22;99186;-85
2023/04/08 23:42:40;;;;;;;5.28;3.25;;;;;;;16.91;55.00;100530.00;12861367;22;99041;-85
2023/04/08 23:47:43;;;;;;;5.07;3.20;;;;;;;17.07;54.51;100527.25;12861313;22;99077;-85
2023/04/08 23:52:48;;;;;;;6.07;3.50;;;;;;;16.73;56.18;100536.44;12861191;22;99398;-85
2023/04/08 23:57:55;;;;;;;5.10;3.13;;;;;;;16.78;55.98;100535.22;12857630;22;99041;-85
